WetterOnline ( https://www.wetteronline.ch )

Wetter aktuell Helgoland

Aktuelles Wetter: Helgoland/Düne (8m)

6-stündlich | Neueste Meldungen
Ortszeit Temperatur Wetter
Sa, 06.06. 14:00 13.8° C leicht bewölkt
Sa, 06.06. 8:00 10.5° C wolkig
Sa, 06.06. 2:00 10.1° C bewölkt
Fr, 05.06. 20:00 11.0° C bedeckt
Fr, 05.06. 14:00 13.4° C wolkig
Fr, 05.06. 8:00 11.2° C leicht bewölkt
Fr, 05.06. 2:00 11.1° C wolkig
Do, 04.06. 20:00 12.1° C Sprühregen
Ortszeit Temperatur Wetter
Sa, 06.06. 16:30 13.7° C bewölkt
Sa, 06.06. 16:20 13.7° C bewölkt
Sa, 06.06. 16:10 13.6° C wolkig
Sa, 06.06. 16:00 12.7° C leichter Regen
Sa, 06.06. 15:50 12.7° C leichter Regen
Sa, 06.06. 15:40 13.2° C leicht bewölkt
Sa, 06.06. 15:30 13.4° C leicht bewölkt
Sa, 06.06. 15:00 13.1° C leicht bewölkt
Ortszeit Relative Feuchte Sichtweite
Sa, 06.06. 14:00 61% 23 km
Sa, 06.06. 8:00 76% 40 km
Sa, 06.06. 2:00 76% 29 km
Fr, 05.06. 20:00 78% 55 km
Fr, 05.06. 14:00 69% 50 km
Fr, 05.06. 8:00 72% 50 km
Fr, 05.06. 2:00 73% 45 km
Do, 04.06. 20:00 86% 25 km
Ortszeit Relative Feuchte Sichtweite
Sa, 06.06. 16:30 60% 35 km
Sa, 06.06. 16:20 60% -
Sa, 06.06. 16:10 59% -
Sa, 06.06. 16:00 63% 23 km
Sa, 06.06. 15:50 63% -
Sa, 06.06. 15:40 59% -
Sa, 06.06. 15:30 65% 30 km
Sa, 06.06. 15:00 64% 18 km
Ortszeit Niederschlagsmenge Niederschlagsart
Sa, 06.06. 14:00 0.1 l/m2 in 6 Std. Regen
Sa, 06.06. 8:00 2 l/m2 in 12 Std. Regen
Sa, 06.06. 2:00 1 l/m2 in 6 Std. Regen
Fr, 05.06. 20:00 8 l/m2 in 12 Std. Regen
Fr, 05.06. 14:00 0.0 l/m2 in 6 Std. -
Fr, 05.06. 8:00 0.2 l/m2 in 12 Std. Regen
Fr, 05.06. 2:00 0.2 l/m2 in 6 Std. Regen
Do, 04.06. 20:00 2 l/m2 in 12 Std. Regen
Ortszeit Niederschlagsmenge Niederschlagsart
Sa, 06.06. 16:30 0.1 l/m2 in 1 Std. Schneeregen
Sa, 06.06. 16:20 keine Meldung -
Sa, 06.06. 16:10 keine Meldung -
Sa, 06.06. 16:00 0.1 l/m2 in 1 Std. Regen
Sa, 06.06. 15:50 keine Meldung -
Sa, 06.06. 15:40 keine Meldung -
Sa, 06.06. 15:30 0.0 l/m2 in 1 Std. -
Sa, 06.06. 15:00 0.0 l/m2 in 1 Std. -
Ortszeit Stärke Spitze Richtung
km/h Bft. km/h Grad Sektor
Sa, 06.06. 14:00 22 4 54 220° SW
Sa, 06.06. 8:00 29 5 58 230° SW
Sa, 06.06. 2:00 37 5 61 270° W
Fr, 05.06. 20:00 20 4 57 240° SW
Fr, 05.06. 14:00 17 3 37 130° SO
Fr, 05.06. 8:00 22 4 43 260° W
Fr, 05.06. 2:00 33 5 46 280° W
Do, 04.06. 20:00 26 4 50 300° NW
Ortszeit Stärke Spitze Richtung
km/h Bft. km/h Grad Sektor
Sa, 06.06. 16:30 24 4 37 220° SW
Sa, 06.06. 16:20 24 4 - 220° SW
Sa, 06.06. 16:10 26 4 - 220° SW
Sa, 06.06. 16:00 29 5 43 220° SW
Sa, 06.06. 15:50 29 5 - 220° SW
Sa, 06.06. 15:40 25 4 - 210° SW
Sa, 06.06. 15:30 28 4 41 220° SW
Sa, 06.06. 15:00 31 5 46 220° SW
Ortszeit Untergrenze Bedeckung Gattung
total tief tief mittel hoch
Sa, 06.06. 14:00 5700 m 3/8 3/8 - - -
Sa, 06.06. 8:00 480 m 7/8 1/8 - - -
Sa, 06.06. 2:00 750 m 7/8 7/8 - - -
Fr, 05.06. 20:00 450 m 8/8 8/8 - - -
Fr, 05.06. 14:00 1500 m 8/8 2/8 - - -
Fr, 05.06. 8:00 720 m 3/8 4/8 - - -
Fr, 05.06. 2:00 660 m 8/8 3/8 - - -
Do, 04.06. 20:00 480 m 8/8 8/8 - - -
Ortszeit Bedeckungsgrad in Achtel und Wolkenuntergrenze
Sa, 06.06. 16:30 1(3300m) 3(4200m) 7(5400m)
Sa, 06.06. 16:20 1(3300m) 3(4200m) 7(5400m)
Sa, 06.06. 16:10 1(1500m) 7(5400m) 8(6000m)
Sa, 06.06. 16:00 2(1800m) 5(2100m) 6(2700m)
Sa, 06.06. 15:50 2(1800m) 5(2100m) 6(2700m)
Sa, 06.06. 15:40 4(2400m) 4(3000m)
Sa, 06.06. 15:30 1(1800m) 3(2400m)
Sa, 06.06. 15:00 2(1800m) 3(2400m) 3(3000m)
Ortszeit Luftdruck NN (hPa) Tendenz (hPa in 3 Std.)
Sa, 06.06. 14:00 997 + 1,7
Sa, 06.06. 8:00 993 + 0,6
Sa, 06.06. 2:00 992 + 1,7
Fr, 05.06. 20:00 988 - 1,2
Fr, 05.06. 14:00 991 - 1,7
Fr, 05.06. 8:00 992 + 0,1
Fr, 05.06. 2:00 993 - 0,2
Do, 04.06. 20:00 993 0,0
Ortszeit Luftdruck NN (hPa) Tendenz (hPa in 3 Std.)
Sa, 06.06. 16:30 998 + 1,1
Sa, 06.06. 16:20 998 keine Meldung
Sa, 06.06. 16:10 998 keine Meldung
Sa, 06.06. 16:00 998 + 1,2
Sa, 06.06. 15:50 998 keine Meldung
Sa, 06.06. 15:40 998 keine Meldung
Sa, 06.06. 15:30 998 + 1,4
Sa, 06.06. 15:00 997 + 1,3
Ortszeit Schneehöhe (cm)
Sa, 06.06. 14:00 -
Sa, 06.06. 8:00 -
Sa, 06.06. 2:00 -
Fr, 05.06. 20:00 -
Fr, 05.06. 14:00 -
Fr, 05.06. 8:00 -
Fr, 05.06. 2:00 -
Do, 04.06. 20:00 -
Ortszeit Schneehöhe (cm)
Sa, 06.06. 16:30 -
Sa, 06.06. 16:20 -
Sa, 06.06. 16:10 -
Sa, 06.06. 16:00 -
Sa, 06.06. 15:50 -
Sa, 06.06. 15:40 -
Sa, 06.06. 15:30 -
Sa, 06.06. 15:00 -
Link zu dieser Seite / Seite empfehlen

Das Wetter in ...